sensor_id;sensor_type;location;lat;lon;timestamp;pressure;altitude;pressure_sealevel;temperature;humidity
71299;BME280;59083;47.974;21.722;2023-04-24T00:03:00;99846.66;;;12.38;51.43
71299;BME280;59083;47.974;21.722;2023-04-24T00:06:02;99838.81;;;12.37;51.97
71299;BME280;59083;47.974;21.722;2023-04-24T00:09:03;99835.56;;;12.35;51.77
71299;BME280;59083;47.974;21.722;2023-04-24T00:12:06;99840.47;;;12.38;52.22
71299;BME280;59083;47.974;21.722;2023-04-24T00:15:07;99832.72;;;12.30;51.57
71299;BME280;59083;47.974;21.722;2023-04-24T00:18:09;99834.94;;;12.33;51.95
71299;BME280;59083;47.974;21.722;2023-04-24T00:21:10;99825.28;;;12.32;52.12
71299;BME280;59083;47.974;21.722;2023-04-24T00:24:12;99825.53;;;12.24;52.43
71299;BME280;59083;47.974;21.722;2023-04-24T00:27:13;99823.28;;;12.21;53.11
71299;BME280;59083;47.974;21.722;2023-04-24T00:30:14;99821.28;;;12.10;52.90
71299;BME280;59083;47.974;21.722;2023-04-24T00:33:15;99820.06;;;12.06;53.12
71299;BME280;59083;47.974;21.722;2023-04-24T00:36:17;99819.25;;;11.98;54.16
71299;BME280;59083;47.974;21.722;2023-04-24T00:39:20;99814.75;;;11.92;54.50
71299;BME280;59083;47.974;21.722;2023-04-24T00:42:22;99809.84;;;11.89;54.50
71299;BME280;59083;47.974;21.722;2023-04-24T00:45:23;99815.41;;;11.81;54.52
71299;BME280;59083;47.974;21.722;2023-04-24T00:48:25;99805.16;;;11.78;54.93
71299;BME280;59083;47.974;21.722;2023-04-24T00:51:26;99804.97;;;11.73;55.55
71299;BME280;59083;47.974;21.722;2023-04-24T00:54:28;99806.16;;;11.64;55.68
71299;BME280;59083;47.974;21.722;2023-04-24T00:57:30;99803.50;;;11.57;55.93
71299;BME280;59083;47.974;21.722;2023-04-24T01:00:31;99811.75;;;11.49;56.09
71299;BME280;59083;47.974;21.722;2023-04-24T01:03:33;99802.09;;;11.42;57.57
71299;BME280;59083;47.974;21.722;2023-04-24T01:06:34;99802.53;;;11.39;57.59
71299;BME280;59083;47.974;21.722;2023-04-24T01:09:37;99807.03;;;11.32;59.83
71299;BME280;59083;47.974;21.722;2023-04-24T01:12:41;99801.69;;;11.18;60.25
71299;BME280;59083;47.974;21.722;2023-04-24T01:15:42;99808.66;;;11.06;60.60
71299;BME280;59083;47.974;21.722;2023-04-24T01:18:44;99806.81;;;10.94;61.13
71299;BME280;59083;47.974;21.722;2023-04-24T01:21:47;99809.66;;;10.72;62.02
71299;BME280;59083;47.974;21.722;2023-04-24T01:24:53;99812.31;;;10.72;62.46
71299;BME280;59083;47.974;21.722;2023-04-24T01:27:54;99810.69;;;10.65;62.38
71299;BME280;59083;47.974;21.722;2023-04-24T01:30:56;99809.63;;;10.53;62.19
71299;BME280;59083;47.974;21.722;2023-04-24T01:33:57;99805.72;;;10.49;62.76
71299;BME280;59083;47.974;21.722;2023-04-24T01:36:59;99807.75;;;10.40;63.19
71299;BME280;59083;47.974;21.722;2023-04-24T01:40:01;99809.34;;;10.28;63.12
71299;BME280;59083;47.974;21.722;2023-04-24T01:43:02;99803.75;;;10.16;63.05
71299;BME280;59083;47.974;21.722;2023-04-24T01:46:05;99805.91;;;10.00;63.53
71299;BME280;59083;47.974;21.722;2023-04-24T01:49:10;99807.12;;;9.97;63.55
71299;BME280;59083;47.974;21.722;2023-04-24T01:52:13;99809.78;;;9.97;63.22
71299;BME280;59083;47.974;21.722;2023-04-24T01:55:14;99804.19;;;9.85;64.11
71299;BME280;59083;47.974;21.722;2023-04-24T01:58:15;99807.06;;;9.84;64.11
71299;BME280;59083;47.974;21.722;2023-04-24T02:01:20;99795.16;;;9.80;64.62
71299;BME280;59083;47.974;21.722;2023-04-24T02:04:22;99799.66;;;9.73;64.43
71299;BME280;59083;47.974;21.722;2023-04-24T02:07:23;99804.78;;;9.81;64.25
71299;BME280;59083;47.974;21.722;2023-04-24T02:10:24;99804.19;;;9.79;63.81
71299;BME280;59083;47.974;21.722;2023-04-24T02:13:26;99794.69;;;9.70;64.38
71299;BME280;59083;47.974;21.722;2023-04-24T02:16:28;99797.53;;;9.62;65.37
71299;BME280;59083;47.974;21.722;2023-04-24T02:19:33;99793.22;;;9.61;65.79
71299;BME280;59083;47.974;21.722;2023-04-24T02:22:34;99794.06;;;9.61;65.62
71299;BME280;59083;47.974;21.722;2023-04-24T02:25:36;99789.69;;;9.53;65.99
71299;BME280;59083;47.974;21.722;2023-04-24T02:28:37;99791.72;;;9.51;65.20
71299;BME280;59083;47.974;21.722;2023-04-24T02:31:38;99788.06;;;9.52;65.97
71299;BME280;59083;47.974;21.722;2023-04-24T02:34:40;99789.69;;;9.53;65.42
71299;BME280;59083;47.974;21.722;2023-04-24T02:37:41;99793.91;;;9.41;66.04
71299;BME280;59083;47.974;21.722;2023-04-24T02:40:45;99786.34;;;9.38;65.97
71299;BME280;59083;47.974;21.722;2023-04-24T02:43:46;99789.78;;;9.32;66.24
71299;BME280;59083;47.974;21.722;2023-04-24T02:46:47;99783.56;;;9.25;67.05
71299;BME280;59083;47.974;21.722;2023-04-24T02:49:49;99780.91;;;9.25;66.81
71299;BME280;59083;47.974;21.722;2023-04-24T02:52:50;99783.34;;;9.20;67.04
71299;BME280;59083;47.974;21.722;2023-04-24T02:55:51;99786.94;;;9.12;68.33
71299;BME280;59083;47.974;21.722;2023-04-24T02:58:52;99784.22;;;9.06;68.65
71299;BME280;59083;47.974;21.722;2023-04-24T03:01:54;99782.75;;;8.97;69.00
71299;BME280;59083;47.974;21.722;2023-04-24T03:04:55;99791.34;;;8.99;70.15
71299;BME280;59083;47.974;21.722;2023-04-24T03:07:58;99796.03;;;8.97;70.24
71299;BME280;59083;47.974;21.722;2023-04-24T03:10:59;99781.72;;;8.98;69.87
71299;BME280;59083;47.974;21.722;2023-04-24T03:14:00;99779.06;;;8.98;69.80
71299;BME280;59083;47.974;21.722;2023-04-24T03:17:01;99793.31;;;8.90;70.22
71299;BME280;59083;47.974;21.722;2023-04-24T03:20:03;99790.47;;;8.92;70.17
71299;BME280;59083;47.974;21.722;2023-04-24T03:23:06;99790.84;;;8.89;70.90
71299;BME280;59083;47.974;21.722;2023-04-24T03:26:08;99778.72;;;8.80;71.77
71299;BME280;59083;47.974;21.722;2023-04-24T03:29:10;99783.12;;;8.94;71.71
71299;BME280;59083;47.974;21.722;2023-04-24T03:32:12;99784.00;;;9.01;70.68
71299;BME280;59083;47.974;21.722;2023-04-24T03:35:13;99784.44;;;9.04;71.63
71299;BME280;59083;47.974;21.722;2023-04-24T03:38:15;99790.53;;;8.98;71.92
71299;BME280;59083;47.974;21.722;2023-04-24T03:41:17;99788.53;;;9.07;72.04
71299;BME280;59083;47.974;21.722;2023-04-24T03:44:20;99792.06;;;8.86;73.69
71299;BME280;59083;47.974;21.722;2023-04-24T03:47:21;99792.94;;;8.93;72.48
71299;BME280;59083;47.974;21.722;2023-04-24T03:50:22;99792.12;;;8.93;73.27
71299;BME280;59083;47.974;21.722;2023-04-24T03:53:24;99795.37;;;8.95;73.34
71299;BME280;59083;47.974;21.722;2023-04-24T03:56:26;99794.06;;;9.05;72.99
71299;BME280;59083;47.974;21.722;2023-04-24T03:59:27;99795.13;;;9.11;72.56
71299;BME280;59083;47.974;21.722;2023-04-24T04:02:29;99797.44;;;9.21;72.46
71299;BME280;59083;47.974;21.722;2023-04-24T04:05:31;99796.63;;;9.20;72.91
71299;BME280;59083;47.974;21.722;2023-04-24T04:08:32;99792.63;;;9.31;72.82
71299;BME280;59083;47.974;21.722;2023-04-24T04:11:33;99789.13;;;9.30;73.48
71299;BME280;59083;47.974;21.722;2023-04-24T04:14:36;99790.88;;;9.44;72.56
71299;BME280;59083;47.974;21.722;2023-04-24T04:17:37;99790.94;;;9.51;73.15
71299;BME280;59083;47.974;21.722;2023-04-24T04:20:39;99792.81;;;9.64;73.13
71299;BME280;59083;47.974;21.722;2023-04-24T04:23:41;99787.13;;;9.67;73.69
71299;BME280;59083;47.974;21.722;2023-04-24T04:26:43;99792.97;;;9.90;72.52
71299;BME280;59083;47.974;21.722;2023-04-24T04:29:48;99796.97;;;11.01;68.94
71299;BME280;59083;47.974;21.722;2023-04-24T04:32:49;99793.41;;;12.37;64.39
71299;BME280;59083;47.974;21.722;2023-04-24T04:35:51;99787.53;;;12.91;61.81
71299;BME280;59083;47.974;21.722;2023-04-24T04:38:58;99793.94;;;14.01;57.96
71299;BME280;59083;47.974;21.722;2023-04-24T04:42:04;99789.25;;;14.74;55.25
71299;BME280;59083;47.974;21.722;2023-04-24T04:45:07;99788.28;;;15.34;53.93
71299;BME280;59083;47.974;21.722;2023-04-24T04:48:11;99795.75;;;16.01;51.67
71299;BME280;59083;47.974;21.722;2023-04-24T04:51:14;99790.09;;;16.15;49.68
71299;BME280;59083;47.974;21.722;2023-04-24T04:54:16;99792.44;;;16.51;48.80
71299;BME280;59083;47.974;21.722;2023-04-24T04:57:17;99792.53;;;16.84;48.34
71299;BME280;59083;47.974;21.722;2023-04-24T05:00:19;99792.31;;;17.19;47.83
71299;BME280;59083;47.974;21.722;2023-04-24T05:03:21;99799.81;;;17.34;47.46
71299;BME280;59083;47.974;21.722;2023-04-24T05:06:24;99798.66;;;17.47;46.69
71299;BME280;59083;47.974;21.722;2023-04-24T05:09:28;99791.81;;;17.39;47.15
71299;BME280;59083;47.974;21.722;2023-04-24T05:12:31;99790.13;;;18.32;44.62
71299;BME280;59083;47.974;21.722;2023-04-24T05:15:32;99798.31;;;18.64;43.93
71299;BME280;59083;47.974;21.722;2023-04-24T05:18:34;99797.72;;;19.15;42.65
71299;BME280;59083;47.974;21.722;2023-04-24T05:21:35;99796.84;;;19.10;42.65
71299;BME280;59083;47.974;21.722;2023-04-24T05:24:37;99803.97;;;19.48;41.75
71299;BME280;59083;47.974;21.722;2023-04-24T05:27:39;99796.19;;;19.61;41.67
71299;BME280;59083;47.974;21.722;2023-04-24T05:30:42;99796.28;;;19.39;40.81
71299;BME280;59083;47.974;21.722;2023-04-24T05:33:43;99800.75;;;19.56;41.21
71299;BME280;59083;47.974;21.722;2023-04-24T05:36:45;99801.41;;;19.73;41.15
71299;BME280;59083;47.974;21.722;2023-04-24T05:39:46;99789.72;;;20.19;39.79
71299;BME280;59083;47.974;21.722;2023-04-24T05:42:47;99793.88;;;20.37;40.08
71299;BME280;59083;47.974;21.722;2023-04-24T05:45:48;99791.47;;;20.51;39.07
71299;BME280;59083;47.974;21.722;2023-04-24T05:48:52;99794.31;;;21.17;37.71
71299;BME280;59083;47.974;21.722;2023-04-24T05:51:53;99790.38;;;20.37;39.82
71299;BME280;59083;47.974;21.722;2023-04-24T05:54:55;99770.41;;;21.09;38.66
71299;BME280;59083;47.974;21.722;2023-04-24T05:57:56;99783.41;;;20.81;39.18
71299;BME280;59083;47.974;21.722;2023-04-24T06:00:58;99764.47;;;21.52;38.22
71299;BME280;59083;47.974;21.722;2023-04-24T06:04:03;99779.81;;;22.02;37.10
71299;BME280;59083;47.974;21.722;2023-04-24T06:07:05;99771.16;;;22.44;36.37
71299;BME280;59083;47.974;21.722;2023-04-24T06:10:07;99771.13;;;22.54;36.08
71299;BME280;59083;47.974;21.722;2023-04-24T06:13:09;99759.00;;;22.81;35.58
71299;BME280;59083;47.974;21.722;2023-04-24T06:16:13;99754.25;;;22.57;35.30
71299;BME280;59083;47.974;21.722;2023-04-24T06:19:14;99755.22;;;22.82;35.28
71299;BME280;59083;47.974;21.722;2023-04-24T06:22:15;99756.22;;;23.54;34.10
71299;BME280;59083;47.974;21.722;2023-04-24T06:25:17;99758.53;;;23.89;33.57
71299;BME280;59083;47.974;21.722;2023-04-24T06:28:18;99761.34;;;24.26;33.18
71299;BME280;59083;47.974;21.722;2023-04-24T06:31:20;99766.69;;;24.13;34.01
71299;BME280;59083;47.974;21.722;2023-04-24T06:34:21;99764.63;;;24.66;32.32
71299;BME280;59083;47.974;21.722;2023-04-24T06:37:22;99772.66;;;24.76;32.59
71299;BME280;59083;47.974;21.722;2023-04-24T06:40:24;99770.84;;;25.23;31.24
71299;BME280;59083;47.974;21.722;2023-04-24T06:43:26;99769.06;;;24.99;31.77
71299;BME280;59083;47.974;21.722;2023-04-24T06:46:27;99773.09;;;24.46;32.00
71299;BME280;59083;47.974;21.722;2023-04-24T06:49:28;99764.31;;;23.59;33.83
71299;BME280;59083;47.974;21.722;2023-04-24T06:52:29;99767.06;;;24.49;32.96
71299;BME280;59083;47.974;21.722;2023-04-24T06:55:33;99761.38;;;25.34;31.70
71299;BME280;59083;47.974;21.722;2023-04-24T06:58:36;99761.38;;;25.34;31.53
71299;BME280;59083;47.974;21.722;2023-04-24T07:01:37;99762.19;;;25.48;31.22
71299;BME280;59083;47.974;21.722;2023-04-24T07:04:39;99741.59;;;25.56;30.62
71299;BME280;59083;47.974;21.722;2023-04-24T07:07:40;99759.94;;;25.23;30.63
71299;BME280;59083;47.974;21.722;2023-04-24T07:10:44;99758.00;;;26.24;30.19
71299;BME280;59083;47.974;21.722;2023-04-24T07:13:45;99759.81;;;25.87;30.13
71299;BME280;59083;47.974;21.722;2023-04-24T07:16:47;99767.31;;;26.23;29.88
71299;BME280;59083;47.974;21.722;2023-04-24T07:19:48;99754.34;;;26.42;29.66
71299;BME280;59083;47.974;21.722;2023-04-24T07:22:49;99746.12;;;26.15;30.53
71299;BME280;59083;47.974;21.722;2023-04-24T07:25:52;99746.69;;;26.89;29.74
71299;BME280;59083;47.974;21.722;2023-04-24T07:28:53;99743.75;;;26.85;29.20
71299;BME280;59083;47.974;21.722;2023-04-24T07:31:54;99741.53;;;27.09;28.50
71299;BME280;59083;47.974;21.722;2023-04-24T07:34:57;99739.75;;;27.05;28.64
71299;BME280;59083;47.974;21.722;2023-04-24T07:37:58;99736.31;;;27.22;28.54
71299;BME280;59083;47.974;21.722;2023-04-24T07:40:59;99736.25;;;26.91;28.17
71299;BME280;59083;47.974;21.722;2023-04-24T07:44:01;99718.94;;;26.37;28.73
71299;BME280;59083;47.974;21.722;2023-04-24T07:47:02;99734.47;;;27.39;28.06
71299;BME280;59083;47.974;21.722;2023-04-24T07:50:03;99732.00;;;26.85;27.37
71299;BME280;59083;47.974;21.722;2023-04-24T07:53:05;99729.06;;;27.26;28.10
71299;BME280;59083;47.974;21.722;2023-04-24T07:56:06;99720.81;;;27.17;27.19
71299;BME280;59083;47.974;21.722;2023-04-24T07:59:08;99719.50;;;27.68;27.18
71299;BME280;59083;47.974;21.722;2023-04-24T08:02:10;99719.41;;;27.50;27.37
71299;BME280;59083;47.974;21.722;2023-04-24T08:05:12;99717.50;;;27.60;25.64
71299;BME280;59083;47.974;21.722;2023-04-24T08:08:14;99719.34;;;26.89;26.89
71299;BME280;59083;47.974;21.722;2023-04-24T08:11:15;99705.84;;;26.70;27.49
71299;BME280;59083;47.974;21.722;2023-04-24T08:14:16;99714.25;;;26.96;27.20
71299;BME280;59083;47.974;21.722;2023-04-24T08:17:18;99704.78;;;26.80;27.83
71299;BME280;59083;47.974;21.722;2023-04-24T08:20:19;99711.34;;;24.92;29.47
71299;BME280;59083;47.974;21.722;2023-04-24T08:23:21;99704.47;;;23.06;31.77
71299;BME280;59083;47.974;21.722;2023-04-24T08:26:23;99697.84;;;22.49;32.77
71299;BME280;59083;47.974;21.722;2023-04-24T08:29:24;99689.41;;;23.66;31.02
71299;BME280;59083;47.974;21.722;2023-04-24T08:32:26;99687.59;;;23.33;31.70
71299;BME280;59083;47.974;21.722;2023-04-24T08:35:31;99684.56;;;23.63;31.15
71299;BME280;59083;47.974;21.722;2023-04-24T08:38:33;99677.97;;;24.31;31.29
71299;BME280;59083;47.974;21.722;2023-04-24T08:41:35;99683.81;;;23.05;31.84
71299;BME280;59083;47.974;21.722;2023-04-24T08:44:38;99678.09;;;22.67;32.61
71299;BME280;59083;47.974;21.722;2023-04-24T08:47:41;99674.78;;;22.03;34.60
71299;BME280;59083;47.974;21.722;2023-04-24T08:50:42;99687.91;;;21.65;35.15
71299;BME280;59083;47.974;21.722;2023-04-24T08:53:46;99686.81;;;21.71;34.67
71299;BME280;59083;47.974;21.722;2023-04-24T08:56:48;99679.63;;;22.06;34.99
71299;BME280;59083;47.974;21.722;2023-04-24T08:59:50;99677.44;;;22.86;34.08
71299;BME280;59083;47.974;21.722;2023-04-24T09:02:54;99674.59;;;23.54;32.34
71299;BME280;59083;47.974;21.722;2023-04-24T09:13:46;99656.22;;;22.54;33.29
71299;BME280;59083;47.974;21.722;2023-04-24T09:16:49;99672.03;;;22.47;33.93
71299;BME280;59083;47.974;21.722;2023-04-24T09:19:51;99665.81;;;22.80;33.98
71299;BME280;59083;47.974;21.722;2023-04-24T09:22:59;99662.94;;;22.66;33.32
71299;BME280;59083;47.974;21.722;2023-04-24T09:26:01;99663.19;;;22.65;33.86
71299;BME280;59083;47.974;21.722;2023-04-24T09:29:05;99654.03;;;22.17;33.93
71299;BME280;59083;47.974;21.722;2023-04-24T09:32:21;99651.81;;;22.24;33.78
71299;BME280;59083;47.974;21.722;2023-04-24T09:35:23;99645.72;;;22.42;33.98
71299;BME280;59083;47.974;21.722;2023-04-24T09:38:32;99651.66;;;22.44;33.92
71299;BME280;59083;47.974;21.722;2023-04-24T09:41:34;99650.16;;;22.96;33.93
71299;BME280;59083;47.974;21.722;2023-04-24T09:44:36;99650.16;;;23.01;34.25
71299;BME280;59083;47.974;21.722;2023-04-24T09:47:41;99654.41;;;23.07;34.62
71299;BME280;59083;47.974;21.722;2023-04-24T09:50:46;99635.63;;;22.48;34.79
71299;BME280;59083;47.974;21.722;2023-04-24T09:53:47;99648.91;;;22.54;34.89
71299;BME280;59083;47.974;21.722;2023-04-24T09:56:51;99654.44;;;22.39;35.39
71299;BME280;59083;47.974;21.722;2023-04-24T09:59:53;99653.56;;;22.49;34.88
71299;BME280;59083;47.974;21.722;2023-04-24T10:06:03;99646.72;;;22.51;34.93
71299;BME280;59083;47.974;21.722;2023-04-24T10:09:09;99649.69;;;22.16;35.34
71299;BME280;59083;47.974;21.722;2023-04-24T10:12:13;99651.94;;;22.09;35.75
71299;BME280;59083;47.974;21.722;2023-04-24T10:15:16;99641.94;;;21.94;35.70
71299;BME280;59083;47.974;21.722;2023-04-24T10:18:21;99645.63;;;21.59;36.59
71299;BME280;59083;47.974;21.722;2023-04-24T10:21:24;99650.53;;;21.57;36.70
71299;BME280;59083;47.974;21.722;2023-04-24T10:24:25;99656.06;;;21.22;38.11
71299;BME280;59083;47.974;21.722;2023-04-24T10:27:28;99660.41;;;20.97;39.15
71299;BME280;59083;47.974;21.722;2023-04-24T10:30:34;99662.53;;;20.14;41.53
71299;BME280;59083;47.974;21.722;2023-04-24T10:33:36;99666.37;;;20.34;41.86
71299;BME280;59083;47.974;21.722;2023-04-24T10:36:55;99661.47;;;20.10;42.11
71299;BME280;59083;47.974;21.722;2023-04-24T10:39:57;99668.91;;;19.78;42.77
71299;BME280;59083;47.974;21.722;2023-04-24T10:42:59;99668.06;;;19.67;42.59
71299;BME280;59083;47.974;21.722;2023-04-24T10:46:04;99667.66;;;19.44;43.45
71299;BME280;59083;47.974;21.722;2023-04-24T10:49:07;99671.91;;;19.24;44.10
71299;BME280;59083;47.974;21.722;2023-04-24T10:52:11;99671.91;;;19.29;45.41
71299;BME280;59083;47.974;21.722;2023-04-24T10:55:14;99669.66;;;19.16;45.80
71299;BME280;59083;47.974;21.722;2023-04-24T10:58:17;99668.66;;;19.27;46.60
71299;BME280;59083;47.974;21.722;2023-04-24T11:01:32;99667.63;;;19.38;47.20
71299;BME280;59083;47.974;21.722;2023-04-24T11:04:33;99664.34;;;19.31;48.12
71299;BME280;59083;47.974;21.722;2023-04-24T11:08:11;99665.81;;;19.02;49.61
71299;BME280;59083;47.974;21.722;2023-04-24T11:11:17;99667.44;;;19.08;48.39
71299;BME280;59083;47.974;21.722;2023-04-24T11:14:18;99667.59;;;19.28;48.21
71299;BME280;59083;47.974;21.722;2023-04-24T11:17:37;99675.22;;;19.42;49.48
71299;BME280;59083;47.974;21.722;2023-04-24T11:20:42;99673.06;;;19.44;48.74
71299;BME280;59083;47.974;21.722;2023-04-24T11:23:45;99673.13;;;19.49;49.73
71299;BME280;59083;47.974;21.722;2023-04-24T11:26:46;99684.00;;;19.59;51.09
71299;BME280;59083;47.974;21.722;2023-04-24T11:33:07;99687.44;;;19.02;50.79
71299;BME280;59083;47.974;21.722;2023-04-24T11:36:08;99689.16;;;19.18;49.60
71299;BME280;59083;47.974;21.722;2023-04-24T11:39:09;99680.94;;;19.03;49.45
71299;BME280;59083;47.974;21.722;2023-04-24T11:42:15;99682.94;;;18.81;49.91
71299;BME280;59083;47.974;21.722;2023-04-24T11:45:27;99680.06;;;18.61;50.34
71299;BME280;59083;47.974;21.722;2023-04-24T11:48:28;99681.84;;;18.82;49.95
71299;BME280;59083;47.974;21.722;2023-04-24T11:51:29;99674.34;;;18.89;50.26
71299;BME280;59083;47.974;21.722;2023-04-24T11:54:32;99675.97;;;18.85;50.65
71299;BME280;59083;47.974;21.722;2023-04-24T11:57:33;99677.25;;;18.77;51.68
71299;BME280;59083;47.974;21.722;2023-04-24T12:00:37;99669.66;;;18.47;53.46
71299;BME280;59083;47.974;21.722;2023-04-24T12:03:39;99680.16;;;18.71;53.92
71299;BME280;59083;47.974;21.722;2023-04-24T12:07:02;99678.47;;;18.65;56.58
71299;BME280;59083;47.974;21.722;2023-04-24T12:10:05;99687.75;;;18.74;56.73
71299;BME280;59083;47.974;21.722;2023-04-24T12:13:09;99671.16;;;18.60;57.79
71299;BME280;59083;47.974;21.722;2023-04-24T12:16:11;99668.66;;;18.27;57.66
71299;BME280;59083;47.974;21.722;2023-04-24T12:19:18;99669.88;;;18.14;57.11
71299;BME280;59083;47.974;21.722;2023-04-24T12:22:19;99654.53;;;17.88;58.33
71299;BME280;59083;47.974;21.722;2023-04-24T12:25:31;99663.03;;;17.80;58.88
71299;BME280;59083;47.974;21.722;2023-04-24T12:28:37;99661.41;;;17.79;58.61
71299;BME280;59083;47.974;21.722;2023-04-24T12:31:38;99657.56;;;17.96;57.12
71299;BME280;59083;47.974;21.722;2023-04-24T12:34:40;99655.63;;;17.92;56.00
71299;BME280;59083;47.974;21.722;2023-04-24T12:37:42;99649.41;;;18.18;55.73
71299;BME280;59083;47.974;21.722;2023-04-24T12:40:44;99649.38;;;18.13;55.50
71299;BME280;59083;47.974;21.722;2023-04-24T12:43:53;99653.09;;;18.07;55.25
71299;BME280;59083;47.974;21.722;2023-04-24T12:46:54;99654.72;;;18.08;54.50
71299;BME280;59083;47.974;21.722;2023-04-24T12:49:55;99650.37;;;18.07;54.56
71299;BME280;59083;47.974;21.722;2023-04-24T12:52:57;99625.50;;;17.73;55.78
71299;BME280;59083;47.974;21.722;2023-04-24T12:55:58;99646.41;;;17.44;58.23
71299;BME280;59083;47.974;21.722;2023-04-24T12:58:59;99644.59;;;17.28;60.59
71299;BME280;59083;47.974;21.722;2023-04-24T13:02:00;99646.28;;;16.96;63.57
71299;BME280;59083;47.974;21.722;2023-04-24T13:05:02;99644.38;;;16.74;70.01
71299;BME280;59083;47.974;21.722;2023-04-24T13:08:03;99644.00;;;16.54;68.85
71299;BME280;59083;47.974;21.722;2023-04-24T13:11:05;99646.66;;;16.21;74.35
71299;BME280;59083;47.974;21.722;2023-04-24T13:14:06;99650.59;;;16.01;75.21
71299;BME280;59083;47.974;21.722;2023-04-24T13:17:07;99651.47;;;15.90;78.00
71299;BME280;59083;47.974;21.722;2023-04-24T13:20:10;99644.97;;;15.75;77.80
71299;BME280;59083;47.974;21.722;2023-04-24T13:23:11;99644.66;;;15.71;79.96
71299;BME280;59083;47.974;21.722;2023-04-24T13:26:12;99638.41;;;15.54;81.37
71299;BME280;59083;47.974;21.722;2023-04-24T13:29:13;99632.78;;;15.55;82.36
71299;BME280;59083;47.974;21.722;2023-04-24T13:32:14;99641.91;;;15.43;84.03
71299;BME280;59083;47.974;21.722;2023-04-24T13:35:16;99642.16;;;15.29;82.70
71299;BME280;59083;47.974;21.722;2023-04-24T13:38:17;99638.66;;;15.17;87.30
71299;BME280;59083;47.974;21.722;2023-04-24T13:41:18;99640.75;;;15.15;83.90
71299;BME280;59083;47.974;21.722;2023-04-24T13:44:20;99635.53;;;15.09;86.64
71299;BME280;59083;47.974;21.722;2023-04-24T13:47:22;99636.34;;;15.09;88.66
71299;BME280;59083;47.974;21.722;2023-04-24T13:50:23;99639.72;;;15.05;86.61
71299;BME280;59083;47.974;21.722;2023-04-24T13:53:24;99631.44;;;15.06;89.96
71299;BME280;59083;47.974;21.722;2023-04-24T13:56:26;99624.19;;;15.18;90.19
71299;BME280;59083;47.974;21.722;2023-04-24T13:59:27;99622.22;;;15.14;89.01
71299;BME280;59083;47.974;21.722;2023-04-24T14:02:28;99626.78;;;15.13;89.94
71299;BME280;59083;47.974;21.722;2023-04-24T14:05:30;99623.16;;;15.08;88.59
71299;BME280;59083;47.974;21.722;2023-04-24T14:08:31;99614.53;;;15.06;91.60
71299;BME280;59083;47.974;21.722;2023-04-24T14:11:33;99617.81;;;14.96;92.26
71299;BME280;59083;47.974;21.722;2023-04-24T14:14:34;99611.63;;;15.07;93.06
71299;BME280;59083;47.974;21.722;2023-04-24T14:17:36;99605.31;;;15.13;96.42
71299;BME280;59083;47.974;21.722;2023-04-24T14:20:37;99602.84;;;15.23;95.02
71299;BME280;59083;47.974;21.722;2023-04-24T14:23:38;99606.47;;;15.17;95.99
71299;BME280;59083;47.974;21.722;2023-04-24T14:26:39;99606.25;;;15.07;95.46
71299;BME280;59083;47.974;21.722;2023-04-24T14:29:40;99600.78;;;15.02;94.01
71299;BME280;59083;47.974;21.722;2023-04-24T14:32:42;99596.13;;;14.86;95.35
71299;BME280;59083;47.974;21.722;2023-04-24T14:35:43;99589.94;;;14.85;96.57
71299;BME280;59083;47.974;21.722;2023-04-24T14:38:44;99584.81;;;14.72;98.40
71299;BME280;59083;47.974;21.722;2023-04-24T14:41:46;99584.34;;;14.64;95.60
71299;BME280;59083;47.974;21.722;2023-04-24T14:44:47;99581.53;;;14.59;95.47
71299;BME280;59083;47.974;21.722;2023-04-24T14:47:48;99577.38;;;14.63;97.40
71299;BME280;59083;47.974;21.722;2023-04-24T14:50:49;99578.53;;;14.67;97.54
71299;BME280;59083;47.974;21.722;2023-04-24T14:53:50;99576.16;;;14.70;98.84
71299;BME280;59083;47.974;21.722;2023-04-24T14:56:54;99565.34;;;14.65;98.23
71299;BME280;59083;47.974;21.722;2023-04-24T14:59:55;99569.44;;;14.68;96.84
71299;BME280;59083;47.974;21.722;2023-04-24T15:02:57;99564.63;;;14.70;98.75
71299;BME280;59083;47.974;21.722;2023-04-24T15:05:58;99553.22;;;14.74;99.02
71299;BME280;59083;47.974;21.722;2023-04-24T15:08:59;99561.25;;;14.86;98.61
71299;BME280;59083;47.974;21.722;2023-04-24T15:12:01;99550.06;;;14.77;98.61
71299;BME280;59083;47.974;21.722;2023-04-24T15:15:02;99552.13;;;14.87;97.72
71299;BME280;59083;47.974;21.722;2023-04-24T15:18:04;99547.12;;;14.91;97.95
71299;BME280;59083;47.974;21.722;2023-04-24T15:21:06;99540.84;;;14.85;97.33
71299;BME280;59083;47.974;21.722;2023-04-24T15:24:08;99543.97;;;14.82;97.08
71299;BME280;59083;47.974;21.722;2023-04-24T15:27:10;99532.78;;;14.85;98.23
71299;BME280;59083;47.974;21.722;2023-04-24T15:30:12;99539.31;;;14.89;98.17
71299;BME280;59083;47.974;21.722;2023-04-24T15:33:14;99537.94;;;14.75;96.86
71299;BME280;59083;47.974;21.722;2023-04-24T15:36:16;99531.06;;;14.79;96.44
71299;BME280;59083;47.974;21.722;2023-04-24T15:39:17;99523.00;;;14.79;98.43
71299;BME280;59083;47.974;21.722;2023-04-24T15:42:19;99518.09;;;14.76;97.65
71299;BME280;59083;47.974;21.722;2023-04-24T15:45:20;99523.81;;;14.79;97.41
71299;BME280;59083;47.974;21.722;2023-04-24T15:48:21;99515.41;;;14.76;99.70
71299;BME280;59083;47.974;21.722;2023-04-24T15:51:22;99517.62;;;14.79;100.00
71299;BME280;59083;47.974;21.722;2023-04-24T15:54:24;99514.25;;;14.72;100.00
71299;BME280;59083;47.974;21.722;2023-04-24T15:57:25;99505.28;;;14.78;100.00
71299;BME280;59083;47.974;21.722;2023-04-24T16:00:26;99516.69;;;14.85;100.00
71299;BME280;59083;47.974;21.722;2023-04-24T16:03:34;99507.00;;;14.84;98.91
71299;BME280;59083;47.974;21.722;2023-04-24T16:06:35;99504.78;;;14.81;98.58
71299;BME280;59083;47.974;21.722;2023-04-24T16:09:36;99505.03;;;14.91;98.50
71299;BME280;59083;47.974;21.722;2023-04-24T16:12:37;99506.66;;;14.92;98.35